createdAt,value
2019-05-14T00:00:52.137Z,64.10
2019-05-14T00:03:21.975Z,64.20
2019-05-14T00:05:51.668Z,64.30
2019-05-14T00:08:22.189Z,64.30
2019-05-14T00:10:52.142Z,64.40
2019-05-14T00:13:21.458Z,64.60
2019-05-14T00:15:52.154Z,64.60
2019-05-14T00:18:22.373Z,65.10
2019-05-14T00:20:51.381Z,65.10
2019-05-14T00:23:21.540Z,65.30
2019-05-14T00:25:52.247Z,65.60
2019-05-14T00:28:21.252Z,65.70
2019-05-14T00:30:52.322Z,65.70
2019-05-14T00:33:22.569Z,65.80
2019-05-14T00:35:51.603Z,66.00
2019-05-14T00:38:22.480Z,66.20
2019-05-14T00:40:51.504Z,66.40
2019-05-14T00:43:21.665Z,67.20
2019-05-14T00:45:51.115Z,66.70
2019-05-14T00:48:21.993Z,66.60
2019-05-14T00:50:51.632Z,66.60
2019-05-14T00:53:21.355Z,66.80
2019-05-14T00:55:51.624Z,66.80
2019-05-14T00:58:21.835Z,67.00
2019-05-14T01:00:52.547Z,67.30
2019-05-14T01:03:21.873Z,67.50
2019-05-14T01:05:52.149Z,67.80
2019-05-14T01:08:21.630Z,68.10
2019-05-14T01:10:51.205Z,68.50
2019-05-14T01:13:21.893Z,68.70
2019-05-14T01:15:52.089Z,69.10
2019-05-14T01:18:22.081Z,69.30
2019-05-14T01:20:51.872Z,69.40
2019-05-14T01:23:21.683Z,69.70
2019-05-14T01:25:51.666Z,70.00
2019-05-14T01:28:21.629Z,70.20
2019-05-14T01:30:51.912Z,70.30
2019-05-14T01:33:21.249Z,70.40
2019-05-14T01:35:51.508Z,70.60
2019-05-14T01:38:22.203Z,70.70
2019-05-14T01:40:52.451Z,70.80
2019-05-14T01:43:22.790Z,70.90
2019-05-14T01:45:52.391Z,71.20
2019-05-14T01:48:22.082Z,71.40
2019-05-14T01:50:52.095Z,71.50
2019-05-14T01:53:22.128Z,72.00
2019-05-14T01:55:51.968Z,72.30
2019-05-14T01:58:22.101Z,72.20
2019-05-14T02:00:52.260Z,72.40
2019-05-14T02:03:21.990Z,72.70
2019-05-14T02:05:52.042Z,72.90
2019-05-14T02:08:21.669Z,73.20
2019-05-14T02:10:52.578Z,73.40
2019-05-14T02:13:21.501Z,73.80
2019-05-14T02:15:51.965Z,74.10
2019-05-14T02:18:21.749Z,74.40
2019-05-14T02:20:52.051Z,74.60
2019-05-14T02:23:22.663Z,74.80
2019-05-14T02:25:52.015Z,75.40
2019-05-14T02:28:22.120Z,75.90
2019-05-14T02:30:57.738Z,76.20
2019-05-14T02:33:21.500Z,76.30
2019-05-14T02:35:50.521Z,76.80
2019-05-14T02:38:19.639Z,77.10
2019-05-14T02:40:49.505Z,77.50
2019-05-14T02:43:20.081Z,77.90
2019-05-14T02:46:02.013Z,78.20
2019-05-14T02:48:20.367Z,78.50
2019-05-14T02:50:49.613Z,78.80
2019-05-14T02:53:19.850Z,79.20
2019-05-14T02:55:49.734Z,79.40
2019-05-14T02:58:20.997Z,79.80
2019-05-14T03:00:50.295Z,80.20
2019-05-14T03:03:19.430Z,80.70
2019-05-14T03:05:49.508Z,81.00
2019-05-14T03:08:20.051Z,81.30
2019-05-14T03:10:50.220Z,81.70
2019-05-14T03:13:20.274Z,82.00
2019-05-14T03:15:49.901Z,82.60
2019-05-14T03:18:19.893Z,82.80
2019-05-14T03:20:50.382Z,83.40
2019-05-14T03:23:22.885Z,84.00
2019-05-14T03:25:50.740Z,84.40
2019-05-14T03:28:20.137Z,85.10
2019-05-14T03:30:52.468Z,85.50
2019-05-14T03:33:21.970Z,85.50
2019-05-14T03:35:57.852Z,84.70
2019-05-14T03:38:20.398Z,84.30
2019-05-14T03:40:49.652Z,83.80
2019-05-14T03:43:19.858Z,82.80
2019-05-14T03:45:49.496Z,82.10
2019-05-14T03:48:19.344Z,80.80
2019-05-14T03:50:49.433Z,79.70
2019-05-14T03:53:20.387Z,77.70
2019-05-14T03:55:50.437Z,76.90
2019-05-14T03:58:21.629Z,76.80
2019-05-14T04:01:00.443Z,76.40
2019-05-14T04:03:29.955Z,74.80
2019-05-14T04:05:59.755Z,74.50
2019-05-14T04:08:29.741Z,73.60
2019-05-14T04:10:59.786Z,72.20
2019-05-14T04:13:30.638Z,71.00
2019-05-14T04:16:02.042Z,68.40
2019-05-14T04:18:32.472Z,66.00
2019-05-14T04:21:03.631Z,65.10
2019-05-14T04:23:34.081Z,65.10
2019-05-14T04:26:09.158Z,63.40
2019-05-14T04:28:39.272Z,62.70
2019-05-14T04:31:09.819Z,61.60
2019-05-14T04:33:41.152Z,59.60
2019-05-14T04:36:10.283Z,58.90
2019-05-14T04:38:41.129Z,59.30
2019-05-14T04:41:10.511Z,59.60
2019-05-14T04:43:40.340Z,57.80
2019-05-14T04:46:10.297Z,55.50
2019-05-14T04:48:43.365Z,52.80
2019-05-14T04:51:10.194Z,51.00
2019-05-14T04:53:39.529Z,51.60
2019-05-14T04:56:09.736Z,51.90
2019-05-14T04:58:41.044Z,51.60
2019-05-14T05:01:10.342Z,50.40
2019-05-14T05:03:39.942Z,50.70
2019-05-14T05:06:10.063Z,50.20
2019-05-14T05:08:39.697Z,49.70
2019-05-14T05:11:09.590Z,50.30
2019-05-14T05:13:39.656Z,50.80
2019-05-14T05:16:10.203Z,52.40
2019-05-14T05:18:40.347Z,53.50
2019-05-14T05:21:09.439Z,54.10
2019-05-14T05:23:38.912Z,53.30
2019-05-14T05:26:09.184Z,52.30
2019-05-14T05:28:39.140Z,52.20
2019-05-14T05:31:09.352Z,50.30
2019-05-14T05:33:38.613Z,50.10
2019-05-14T05:36:09.402Z,50.20
2019-05-14T05:38:39.396Z,49.60
2019-05-14T05:41:09.020Z,48.30
2019-05-14T05:43:39.314Z,47.50
2019-05-14T05:46:08.905Z,47.30
2019-05-14T05:48:38.973Z,47.40
2019-05-14T05:51:09.070Z,48.10
2019-05-14T05:53:39.315Z,52.30
2019-05-14T05:56:09.067Z,54.60
2019-05-14T05:58:39.774Z,52.90
2019-05-14T06:01:09.876Z,50.60
2019-05-14T06:03:39.369Z,53.40
2019-05-14T06:06:13.521Z,54.60
2019-05-14T06:08:39.059Z,56.10
2019-05-14T06:11:08.638Z,59.70
2019-05-14T06:13:39.075Z,62.90
2019-05-14T06:16:09.470Z,62.80
2019-05-14T06:18:39.315Z,58.80
2019-05-14T06:21:09.110Z,59.80
2019-05-14T06:23:38.804Z,62.80
2019-05-14T06:26:11.649Z,66.90
2019-05-14T06:28:41.011Z,69.10
2019-05-14T06:31:24.375Z,69.50
2019-05-14T06:33:54.714Z,68.90
2019-05-14T06:36:23.660Z,64.20
2019-05-14T06:38:52.390Z,56.60
2019-05-14T06:41:21.649Z,54.80
2019-05-14T06:43:50.611Z,54.60
2019-05-14T06:46:19.729Z,51.80
2019-05-14T06:48:48.812Z,53.70
2019-05-14T06:51:19.857Z,57.70
2019-05-14T06:53:49.775Z,60.60
2019-05-14T06:56:21.807Z,59.50
2019-05-14T06:58:50.009Z,56.90
2019-05-14T07:01:18.737Z,55.00
2019-05-14T07:03:49.012Z,53.70
2019-05-14T07:06:18.609Z,51.80
2019-05-14T07:08:49.468Z,52.50
2019-05-14T07:11:19.107Z,54.30
2019-05-14T07:13:49.081Z,58.10
2019-05-14T07:16:19.715Z,57.70
2019-05-14T07:18:52.925Z,53.20
2019-05-14T07:21:19.111Z,53.50
2019-05-14T07:23:48.961Z,57.00
2019-05-14T07:26:19.346Z,58.90
2019-05-14T07:28:48.992Z,60.90
2019-05-14T07:31:18.621Z,59.60
2019-05-14T07:33:49.267Z,59.80
2019-05-14T07:36:19.231Z,62.80
2019-05-14T07:38:48.985Z,64.60
2019-05-14T07:41:19.280Z,64.60
2019-05-14T07:43:49.764Z,62.80
2019-05-14T07:46:19.428Z,60.30
2019-05-14T07:49:03.520Z,59.60
2019-05-14T07:51:19.889Z,60.60
2019-05-14T07:53:49.092Z,58.00
2019-05-14T07:56:18.700Z,59.60
2019-05-14T07:58:49.140Z,62.50
2019-05-14T08:01:18.720Z,64.10
2019-05-14T08:03:48.916Z,65.20
2019-05-14T08:06:18.931Z,65.40
2019-05-14T08:08:49.218Z,65.40
2019-05-14T08:11:19.089Z,62.90
2019-05-14T08:13:49.385Z,63.40
2019-05-14T08:16:18.822Z,64.50
2019-05-14T08:18:48.684Z,64.30
2019-05-14T08:21:19.310Z,62.10
2019-05-14T08:23:48.365Z,59.40
2019-05-14T08:26:19.196Z,58.60
2019-05-14T08:28:48.837Z,56.60
2019-05-14T08:31:18.726Z,53.10
2019-05-14T08:33:48.852Z,52.50
2019-05-14T08:36:18.725Z,52.40
2019-05-14T08:38:49.966Z,54.40
2019-05-14T08:41:19.961Z,52.90
2019-05-14T08:43:49.280Z,53.70
2019-05-14T08:46:19.204Z,53.20
2019-05-14T08:48:49.697Z,56.10
2019-05-14T08:51:18.774Z,56.10
2019-05-14T08:53:50.265Z,56.70
2019-05-14T08:56:19.223Z,58.30
2019-05-14T08:58:49.406Z,58.10
2019-05-14T09:01:19.680Z,57.60
2019-05-14T09:03:49.363Z,56.40
2019-05-14T09:06:18.812Z,52.80
2019-05-14T09:08:49.599Z,45.00
2019-05-14T09:11:24.330Z,45.80
2019-05-14T09:13:49.189Z,49.00
2019-05-14T09:16:19.423Z,51.00
2019-05-14T09:18:49.139Z,51.00
2019-05-14T09:21:20.501Z,49.90
2019-05-14T09:23:48.487Z,48.80
2019-05-14T09:26:18.487Z,51.40
2019-05-14T09:28:48.255Z,53.00
2019-05-14T09:31:19.638Z,53.70
2019-05-14T09:33:49.407Z,53.30
2019-05-14T09:36:23.732Z,52.50
2019-05-14T09:38:50.439Z,52.20
2019-05-14T09:41:19.720Z,51.30
2019-05-14T09:43:48.821Z,50.60
2019-05-14T09:46:18.476Z,49.60
2019-05-14T09:48:48.751Z,48.60
2019-05-14T09:51:18.465Z,47.10
2019-05-14T09:53:48.967Z,47.30
2019-05-14T09:56:18.836Z,46.60
2019-05-14T09:58:49.612Z,47.60
2019-05-14T10:01:19.369Z,48.30
2019-05-14T10:03:49.597Z,48.50
2019-05-14T10:06:20.559Z,50.90
2019-05-14T10:08:49.139Z,51.10
2019-05-14T10:11:17.789Z,51.20
2019-05-14T10:13:48.349Z,52.10
2019-05-14T10:16:18.810Z,52.60
2019-05-14T10:18:49.785Z,53.00
2019-05-14T10:21:19.285Z,52.90
2019-05-14T10:23:48.106Z,52.90
2019-05-14T10:26:18.612Z,52.30
2019-05-14T10:28:48.525Z,52.50
2019-05-14T10:31:18.706Z,52.60
2019-05-14T10:33:48.667Z,50.60
2019-05-14T10:36:19.081Z,50.60
2019-05-14T10:38:48.167Z,51.60
2019-05-14T10:41:18.446Z,51.80
2019-05-14T10:43:49.611Z,50.90
2019-05-14T10:46:19.357Z,51.90
2019-05-14T10:48:48.483Z,51.80
2019-05-14T10:51:18.087Z,51.10
2019-05-14T10:53:48.880Z,51.80
2019-05-14T10:56:19.338Z,51.30
2019-05-14T10:58:49.089Z,50.40
2019-05-14T11:01:22.330Z,50.30
2019-05-14T11:03:48.577Z,49.70
2019-05-14T11:06:18.735Z,49.00
2019-05-14T11:08:49.082Z,47.80
2019-05-14T11:11:18.651Z,47.90
2019-05-14T11:13:47.686Z,47.60
2019-05-14T11:16:18.819Z,47.80
2019-05-14T11:18:49.819Z,48.60
2019-05-14T11:21:25.646Z,48.40
2019-05-14T11:23:49.131Z,48.30
2019-05-14T11:26:19.154Z,48.90
2019-05-14T11:28:49.325Z,49.60
2019-05-14T11:31:19.212Z,49.30
2019-05-14T11:33:49.718Z,48.00
2019-05-14T11:36:18.926Z,46.30
2019-05-14T11:38:50.792Z,45.30
2019-05-14T11:41:18.702Z,45.50
2019-05-14T11:43:49.191Z,45.20
2019-05-14T11:46:33.231Z,46.70
2019-05-14T11:48:49.511Z,48.20
2019-05-14T11:51:20.665Z,48.50
2019-05-14T11:53:49.714Z,48.00
2019-05-14T11:56:19.381Z,48.00
2019-05-14T11:58:48.976Z,47.80
2019-05-14T12:01:18.908Z,47.50
2019-05-14T12:03:50.263Z,47.20
2019-05-14T12:06:18.884Z,47.40
2019-05-14T12:08:47.806Z,47.00
2019-05-14T12:11:19.396Z,46.60
2019-05-14T12:13:48.784Z,46.20
2019-05-14T12:16:17.683Z,46.30
2019-05-14T12:18:48.353Z,46.60
2019-05-14T12:21:17.502Z,47.00
2019-05-14T12:23:46.730Z,46.70
2019-05-14T12:26:18.920Z,46.70
2019-05-14T12:28:49.194Z,47.10
2019-05-14T12:31:17.296Z,47.90
2019-05-14T12:33:48.670Z,47.50
2019-05-14T12:36:19.354Z,46.90
2019-05-14T12:38:47.386Z,46.40
2019-05-14T12:41:19.067Z,46.50
2019-05-14T12:43:46.743Z,46.80
2019-05-14T12:46:16.851Z,46.10
2019-05-14T12:48:45.711Z,46.10
2019-05-14T12:51:14.384Z,46.00
2019-05-14T12:53:43.208Z,46.10
2019-05-14T12:56:15.294Z,45.70
2019-05-14T12:58:45.906Z,45.60
2019-05-14T13:01:15.112Z,44.60
2019-05-14T13:03:44.414Z,45.10
2019-05-14T13:06:13.856Z,44.90
2019-05-14T13:08:43.093Z,44.90
2019-05-14T13:11:11.854Z,45.40
2019-05-14T13:13:42.886Z,45.50
2019-05-14T13:16:11.724Z,46.10
2019-05-14T13:18:40.460Z,44.80
2019-05-14T13:21:09.168Z,45.10
2019-05-14T13:23:38.587Z,44.60
2019-05-14T13:26:10.446Z,44.20
2019-05-14T13:28:39.706Z,44.10
2019-05-14T13:31:08.963Z,43.40
2019-05-14T13:33:39.325Z,42.50
2019-05-14T13:36:10.604Z,42.90
2019-05-14T13:38:41.487Z,42.40
2019-05-14T13:41:10.299Z,42.80
2019-05-14T13:43:39.855Z,43.00
2019-05-14T13:46:11.290Z,43.20
2019-05-14T13:48:43.483Z,42.80
2019-05-14T13:51:12.156Z,42.80
2019-05-14T13:53:40.954Z,43.10
2019-05-14T13:56:09.753Z,42.50
2019-05-14T13:58:38.623Z,43.70
2019-05-14T14:01:09.965Z,42.70
2019-05-14T14:03:46.766Z,42.80
2019-05-14T14:06:10.502Z,42.20
2019-05-14T14:08:42.417Z,42.00
2019-05-14T14:11:12.605Z,42.30
2019-05-14T14:13:41.625Z,41.90
2019-05-14T14:16:14.747Z,41.50
2019-05-14T14:18:41.094Z,41.40
2019-05-14T14:21:10.907Z,41.70
2019-05-14T14:23:40.032Z,42.00
2019-05-14T14:26:09.624Z,42.10
2019-05-14T14:28:39.769Z,42.80
2019-05-14T14:31:11.087Z,42.80
2019-05-14T14:33:39.415Z,42.40
2019-05-14T14:36:08.603Z,41.90
2019-05-14T14:38:40.203Z,41.60
2019-05-14T14:41:10.125Z,41.50
2019-05-14T14:43:43.376Z,41.50
2019-05-14T14:46:13.932Z,41.20
2019-05-14T14:48:40.606Z,41.40
2019-05-14T14:51:09.640Z,41.70
2019-05-14T14:53:53.345Z,41.50
2019-05-14T14:56:09.782Z,41.80
2019-05-14T14:58:39.217Z,41.90
2019-05-14T15:01:08.902Z,42.60
2019-05-14T15:03:37.801Z,41.50
2019-05-14T15:06:09.479Z,41.60
2019-05-14T15:08:38.888Z,41.80
2019-05-14T15:11:08.614Z,42.10
2019-05-14T15:13:39.195Z,42.50
2019-05-14T15:16:13.291Z,42.20
2019-05-14T15:18:39.686Z,42.80
2019-05-14T15:21:09.797Z,43.10
2019-05-14T15:23:43.101Z,42.60
2019-05-14T15:26:11.936Z,42.60
2019-05-14T15:28:39.961Z,42.80
2019-05-14T15:31:09.066Z,42.90
2019-05-14T15:33:37.802Z,43.00
2019-05-14T15:36:09.151Z,43.20
2019-05-14T15:38:39.713Z,43.20
2019-05-14T15:41:12.684Z,43.60
2019-05-14T15:43:39.452Z,42.90
2019-05-14T15:46:08.825Z,43.20
2019-05-14T15:48:39.525Z,43.80
2019-05-14T15:51:14.343Z,44.00
2019-05-14T15:53:39.126Z,44.20
2019-05-14T15:56:08.243Z,44.50
2019-05-14T15:58:39.024Z,44.30
2019-05-14T16:01:10.055Z,44.50
2019-05-14T16:03:41.417Z,44.60
2019-05-14T16:06:09.417Z,44.70
2019-05-14T16:08:40.265Z,44.30
2019-05-14T16:11:11.507Z,43.70
2019-05-14T16:13:40.025Z,43.30
2019-05-14T16:16:10.619Z,43.40
2019-05-14T16:18:39.608Z,44.40
2019-05-14T16:21:10.500Z,44.60
2019-05-14T16:23:38.941Z,44.90
2019-05-14T16:26:08.845Z,44.70
2019-05-14T16:28:39.483Z,44.90
2019-05-14T16:31:08.787Z,44.90
2019-05-14T16:33:40.361Z,44.90
2019-05-14T16:36:08.821Z,44.90
2019-05-14T16:38:39.534Z,45.00
2019-05-14T16:41:08.264Z,44.90
2019-05-14T16:43:39.512Z,44.80
2019-05-14T16:46:09.510Z,45.20
2019-05-14T16:48:39.660Z,45.20
2019-05-14T16:51:09.066Z,45.50
2019-05-14T16:53:38.167Z,45.70
2019-05-14T16:56:08.123Z,45.40
2019-05-14T16:58:38.614Z,45.50
2019-05-14T17:01:09.607Z,45.40
2019-05-14T17:03:39.717Z,45.30
2019-05-14T17:06:09.022Z,45.50
2019-05-14T17:08:39.746Z,45.40
2019-05-14T17:11:09.035Z,45.90
2019-05-14T17:13:38.283Z,46.00
2019-05-14T17:16:08.565Z,45.80
2019-05-14T17:18:37.490Z,45.80
2019-05-14T17:21:08.980Z,45.80
2019-05-14T17:23:39.066Z,46.10
2019-05-14T17:26:08.833Z,46.40
2019-05-14T17:28:40.478Z,46.60
2019-05-14T17:31:08.354Z,46.40
2019-05-14T17:33:39.516Z,45.70
2019-05-14T17:36:09.610Z,46.10
2019-05-14T17:38:39.216Z,46.40
2019-05-14T17:41:09.443Z,46.40
2019-05-14T17:43:39.292Z,46.30
2019-05-14T17:46:09.735Z,46.30
2019-05-14T17:48:39.360Z,46.50
2019-05-14T17:51:09.443Z,46.80
2019-05-14T17:53:38.733Z,47.10
2019-05-14T17:56:08.466Z,47.30
2019-05-14T17:58:38.368Z,47.40
2019-05-14T18:01:09.024Z,47.40
2019-05-14T18:03:39.950Z,47.70
2019-05-14T18:06:09.419Z,47.60
2019-05-14T18:08:38.281Z,47.40
2019-05-14T18:11:08.746Z,47.60
2019-05-14T18:13:39.149Z,47.90
2019-05-14T18:16:08.962Z,48.00
2019-05-14T18:18:37.979Z,47.80
2019-05-14T18:21:09.138Z,47.60
2019-05-14T18:23:41.718Z,47.60
2019-05-14T18:26:09.114Z,47.80
2019-05-14T18:28:38.407Z,47.50
2019-05-14T18:31:09.545Z,47.30
2019-05-14T18:33:39.835Z,47.40
2019-05-14T18:36:08.646Z,47.10
2019-05-14T18:38:38.907Z,47.20
2019-05-14T18:41:08.463Z,47.20
2019-05-14T18:43:37.740Z,47.10
2019-05-14T18:46:08.483Z,47.30
2019-05-14T18:48:37.879Z,47.30
2019-05-14T18:51:08.962Z,47.50
2019-05-14T18:53:38.430Z,47.50
2019-05-14T18:56:19.586Z,47.60
2019-05-14T18:58:38.727Z,47.70
2019-05-14T19:01:08.039Z,47.80
2019-05-14T19:03:39.593Z,47.90
2019-05-14T19:06:07.751Z,48.00
2019-05-14T19:08:36.627Z,48.20
2019-05-14T19:11:08.238Z,48.20
2019-05-14T19:13:39.006Z,48.30
2019-05-14T19:16:08.354Z,48.20
2019-05-14T19:18:38.606Z,48.30
2019-05-14T19:21:08.803Z,48.40
2019-05-14T19:23:38.597Z,48.50
2019-05-14T19:26:09.420Z,48.50
2019-05-14T19:28:38.984Z,48.60
2019-05-14T19:31:09.146Z,48.70
2019-05-14T19:33:38.172Z,48.90
2019-05-14T19:36:08.779Z,49.10
2019-05-14T19:38:39.334Z,49.40
2019-05-14T19:41:08.774Z,49.60
2019-05-14T19:43:37.780Z,49.90
2019-05-14T19:46:08.603Z,50.10
2019-05-14T19:48:37.022Z,50.10
2019-05-14T19:51:08.296Z,50.10
2019-05-14T19:53:39.201Z,50.10
2019-05-14T19:56:08.403Z,49.90
2019-05-14T19:58:38.352Z,50.10
2019-05-14T20:01:09.117Z,50.10
2019-05-14T20:03:38.070Z,50.10
2019-05-14T20:06:09.011Z,50.40
2019-05-14T20:08:38.486Z,50.40
2019-05-14T20:11:10.880Z,50.40
2019-05-14T20:13:39.878Z,50.70
2019-05-14T20:16:09.032Z,50.60
2019-05-14T20:18:38.397Z,50.70
2019-05-14T20:21:08.717Z,50.80
2019-05-14T20:23:38.688Z,50.90
2019-05-14T20:26:08.267Z,51.10
2019-05-14T20:28:39.004Z,51.40
2019-05-14T20:31:10.114Z,51.30
2019-05-14T20:33:38.383Z,51.60
2019-05-14T20:36:08.283Z,51.70
2019-05-14T20:38:38.770Z,51.90
2019-05-14T20:41:08.656Z,52.50
2019-05-14T20:43:38.536Z,52.10
2019-05-14T20:46:07.465Z,52.30
2019-05-14T20:48:38.880Z,52.50
2019-05-14T20:51:08.968Z,52.40
2019-05-14T20:53:39.668Z,52.50
2019-05-14T20:56:08.550Z,52.80
2019-05-14T20:58:38.853Z,53.00
2019-05-14T21:01:11.127Z,53.30
2019-05-14T21:03:38.669Z,53.30
2019-05-14T21:06:09.018Z,53.50
2019-05-14T21:08:38.168Z,53.60
2019-05-14T21:11:08.248Z,53.80
2019-05-14T21:13:37.100Z,53.90
2019-05-14T21:16:08.445Z,54.00
2019-05-14T21:18:40.666Z,54.20
2019-05-14T21:21:10.894Z,54.20
2019-05-14T21:23:38.329Z,54.30
2019-05-14T21:26:08.541Z,54.50
2019-05-14T21:28:39.322Z,54.60
2019-05-14T21:31:10.389Z,54.90
2019-05-14T21:33:39.206Z,55.20
2019-05-14T21:36:12.247Z,55.50
2019-05-14T21:38:41.065Z,55.80
2019-05-14T21:41:09.390Z,56.10
2019-05-14T21:43:38.546Z,56.40
2019-05-14T21:46:08.153Z,56.70
2019-05-14T21:48:38.810Z,56.90
2019-05-14T21:51:08.720Z,57.20
2019-05-14T21:53:38.591Z,57.20
2019-05-14T21:56:08.098Z,57.40
2019-05-14T21:58:38.724Z,57.70
2019-05-14T22:01:09.092Z,57.90
2019-05-14T22:03:40.086Z,58.00
2019-05-14T22:06:08.934Z,58.20
2019-05-14T22:08:39.308Z,58.20
2019-05-14T22:11:08.593Z,58.40
2019-05-14T22:13:38.129Z,58.70
2019-05-14T22:16:08.454Z,58.70
2019-05-14T22:18:38.917Z,58.80
2019-05-14T22:21:08.831Z,59.50
2019-05-14T22:23:38.795Z,59.10
2019-05-14T22:26:07.682Z,59.70
2019-05-14T22:28:36.586Z,59.20
2019-05-14T22:31:05.623Z,59.40
2019-05-14T22:33:34.422Z,59.40
2019-05-14T22:36:03.415Z,59.50
2019-05-14T22:38:33.159Z,59.70
2019-05-14T22:41:01.904Z,59.70
2019-05-14T22:43:30.829Z,59.80
2019-05-14T22:45:59.703Z,60.00
2019-05-14T22:48:28.619Z,60.00
2019-05-14T22:50:59.261Z,60.30
2019-05-14T22:53:30.369Z,60.40
2019-05-14T22:55:58.777Z,60.60
2019-05-14T22:58:28.828Z,60.70
2019-05-14T23:01:13.573Z,60.70
2019-05-14T23:03:28.848Z,60.90
2019-05-14T23:05:58.250Z,61.10
2019-05-14T23:08:27.282Z,61.20
2019-05-14T23:10:58.830Z,61.30
2019-05-14T23:13:28.193Z,61.50
2019-05-14T23:15:58.805Z,61.50
2019-05-14T23:18:28.756Z,61.80
2019-05-14T23:20:59.073Z,61.80
2019-05-14T23:23:28.425Z,61.90
2019-05-14T23:25:58.956Z,61.90
2019-05-14T23:28:39.465Z,62.10
2019-05-14T23:30:58.820Z,62.40
2019-05-14T23:33:28.871Z,62.50
2019-05-14T23:35:57.861Z,62.80
2019-05-14T23:38:28.935Z,62.80
2019-05-14T23:40:59.238Z,63.00
2019-05-14T23:43:28.845Z,63.10
2019-05-14T23:45:58.397Z,63.40
2019-05-14T23:48:27.599Z,63.50
2019-05-14T23:50:58.477Z,63.60
2019-05-14T23:53:29.158Z,63.80
2019-05-14T23:55:58.095Z,64.10
2019-05-14T23:58:28.904Z,64.00
